Jamesport, New York
Current Conditions -  °F | °C
As of 10:53 PM on Thursday 18 Dec 2014 (Local Time) from KFOK Reporting Station
Few Clouds Few Clouds  
Wind Chill: 30°   Ceiling: Unl
Heat Index: 30°   Visibility: 10mi
Dew Point: 23°   Wind: 3mph
Humidity: 75%   Direction: 250°WSW
Pressure: 29.96"   Gusts: NA
Location:  40.95°N, 72.57°W
Report Text: KFOK 190353Z AUTO 25003KT 10SM FEW029 M01/M05 A2996 RMK AO2 SLP147 T10111050 TSNO
Loading
Personal Weather Stations






























Interactive Weather Map New forecast layout! Learn more

10-Day Weather Forecast

Advertisements
Track Severe Weather on mobile